sensor_id;sensor_type;location;lat;lon;timestamp;temperature;humidity
15930;DHT22;8064;51.142;4.780;2023-05-02T00:00:12;11.80;99.90
15930;DHT22;8064;51.142;4.780;2023-05-02T00:02:38;11.80;99.90
15930;DHT22;8064;51.142;4.780;2023-05-02T00:05:05;11.80;99.90
15930;DHT22;8064;51.142;4.780;2023-05-02T00:07:31;11.80;99.90
15930;DHT22;8064;51.142;4.780;2023-05-02T00:09:58;11.80;99.90
15930;DHT22;8064;51.142;4.780;2023-05-02T00:12:24;11.90;99.90
15930;DHT22;8064;51.142;4.780;2023-05-02T00:14:50;12.00;99.90
15930;DHT22;8064;51.142;4.780;2023-05-02T00:17:17;12.00;99.90
15930;DHT22;8064;51.142;4.780;2023-05-02T00:19:44;12.00;99.90
15930;DHT22;8064;51.142;4.780;2023-05-02T00:22:09;12.10;99.90
15930;DHT22;8064;51.142;4.780;2023-05-02T00:24:35;12.10;99.90
15930;DHT22;8064;51.142;4.780;2023-05-02T00:27:01;12.10;99.90
15930;DHT22;8064;51.142;4.780;2023-05-02T00:29:27;12.10;99.90
15930;DHT22;8064;51.142;4.780;2023-05-02T00:31:52;12.10;99.90
15930;DHT22;8064;51.142;4.780;2023-05-02T00:34:18;12.10;99.90
15930;DHT22;8064;51.142;4.780;2023-05-02T00:36:44;12.10;99.90
15930;DHT22;8064;51.142;4.780;2023-05-02T00:39:10;12.10;99.90
15930;DHT22;8064;51.142;4.780;2023-05-02T00:41:35;12.10;99.90
15930;DHT22;8064;51.142;4.780;2023-05-02T00:44:01;12.10;99.90
15930;DHT22;8064;51.142;4.780;2023-05-02T00:46:27;12.20;99.90
15930;DHT22;8064;51.142;4.780;2023-05-02T00:48:54;12.20;99.90
15930;DHT22;8064;51.142;4.780;2023-05-02T00:51:19;12.20;99.90
15930;DHT22;8064;51.142;4.780;2023-05-02T00:53:45;12.20;99.90
15930;DHT22;8064;51.142;4.780;2023-05-02T00:56:11;12.20;99.90
15930;DHT22;8064;51.142;4.780;2023-05-02T00:58:38;12.20;99.90
15930;DHT22;8064;51.142;4.780;2023-05-02T01:04:20;12.30;99.90
15930;DHT22;8064;51.142;4.780;2023-05-02T01:07:13;12.30;99.90
15930;DHT22;8064;51.142;4.780;2023-05-02T01:15:01;12.30;99.90
15930;DHT22;8064;51.142;4.780;2023-05-02T01:17:30;12.30;99.90
15930;DHT22;8064;51.142;4.780;2023-05-02T01:19:59;12.30;99.90
15930;DHT22;8064;51.142;4.780;2023-05-02T01:22:27;12.30;99.90
15930;DHT22;8064;51.142;4.780;2023-05-02T01:25:13;12.30;99.90
15930;DHT22;8064;51.142;4.780;2023-05-02T01:30:45;12.30;99.90
15930;DHT22;8064;51.142;4.780;2023-05-02T01:33:14;12.30;99.90
15930;DHT22;8064;51.142;4.780;2023-05-02T01:35:42;12.30;99.90
15930;DHT22;8064;51.142;4.780;2023-05-02T01:38:13;12.30;99.90
15930;DHT22;8064;51.142;4.780;2023-05-02T01:40:40;12.30;99.90
15930;DHT22;8064;51.142;4.780;2023-05-02T01:43:10;12.30;99.90
15930;DHT22;8064;51.142;4.780;2023-05-02T01:45:37;12.30;99.90
15930;DHT22;8064;51.142;4.780;2023-05-02T01:48:05;12.30;99.90
15930;DHT22;8064;51.142;4.780;2023-05-02T01:50:33;12.30;99.90
15930;DHT22;8064;51.142;4.780;2023-05-02T01:52:59;12.30;99.90
15930;DHT22;8064;51.142;4.780;2023-05-02T01:55:28;12.20;99.90
15930;DHT22;8064;51.142;4.780;2023-05-02T01:57:54;12.20;99.90
15930;DHT22;8064;51.142;4.780;2023-05-02T02:00:22;12.20;99.90
15930;DHT22;8064;51.142;4.780;2023-05-02T02:02:50;12.20;99.90
15930;DHT22;8064;51.142;4.780;2023-05-02T02:05:17;12.10;99.90
15930;DHT22;8064;51.142;4.780;2023-05-02T02:07:45;12.10;99.90
15930;DHT22;8064;51.142;4.780;2023-05-02T02:10:11;12.00;99.90
15930;DHT22;8064;51.142;4.780;2023-05-02T02:12:38;12.00;99.90
15930;DHT22;8064;51.142;4.780;2023-05-02T02:17:47;11.90;99.90
15930;DHT22;8064;51.142;4.780;2023-05-02T02:20:14;11.80;99.90
15930;DHT22;8064;51.142;4.780;2023-05-02T02:22:42;11.80;99.90
15930;DHT22;8064;51.142;4.780;2023-05-02T02:25:11;11.80;99.90
15930;DHT22;8064;51.142;4.780;2023-05-02T02:27:38;11.70;99.90
15930;DHT22;8064;51.142;4.780;2023-05-02T02:30:05;11.70;99.90
15930;DHT22;8064;51.142;4.780;2023-05-02T02:32:31;11.70;99.90
15930;DHT22;8064;51.142;4.780;2023-05-02T02:34:57;11.70;99.90
15930;DHT22;8064;51.142;4.780;2023-05-02T02:37:40;11.70;99.90
15930;DHT22;8064;51.142;4.780;2023-05-02T02:43:11;11.60;99.90
15930;DHT22;8064;51.142;4.780;2023-05-02T02:53:37;11.50;99.90
15930;DHT22;8064;51.142;4.780;2023-05-02T02:56:14;11.50;99.90
15930;DHT22;8064;51.142;4.780;2023-05-02T02:58:50;11.50;99.90
15930;DHT22;8064;51.142;4.780;2023-05-02T03:01:21;11.50;99.90
15930;DHT22;8064;51.142;4.780;2023-05-02T03:03:48;11.50;99.90
15930;DHT22;8064;51.142;4.780;2023-05-02T03:06:16;11.50;99.90
15930;DHT22;8064;51.142;4.780;2023-05-02T03:08:42;11.50;99.90
15930;DHT22;8064;51.142;4.780;2023-05-02T03:11:09;11.60;99.90
15930;DHT22;8064;51.142;4.780;2023-05-02T03:13:35;11.60;99.90
15930;DHT22;8064;51.142;4.780;2023-05-02T03:16:10;11.60;99.90
15930;DHT22;8064;51.142;4.780;2023-05-02T03:18:37;11.70;99.90
15930;DHT22;8064;51.142;4.780;2023-05-02T03:21:03;11.70;99.90
15930;DHT22;8064;51.142;4.780;2023-05-02T03:23:28;11.70;99.90
15930;DHT22;8064;51.142;4.780;2023-05-02T03:25:54;11.80;99.90
15930;DHT22;8064;51.142;4.780;2023-05-02T03:28:20;11.80;99.90
15930;DHT22;8064;51.142;4.780;2023-05-02T03:30:46;11.80;99.90
15930;DHT22;8064;51.142;4.780;2023-05-02T03:33:11;11.80;99.90
15930;DHT22;8064;51.142;4.780;2023-05-02T03:35:37;11.80;99.90
15930;DHT22;8064;51.142;4.780;2023-05-02T03:38:03;11.80;99.90
15930;DHT22;8064;51.142;4.780;2023-05-02T03:40:28;11.80;99.90
15930;DHT22;8064;51.142;4.780;2023-05-02T03:42:54;11.80;99.90
15930;DHT22;8064;51.142;4.780;2023-05-02T03:45:20;11.80;99.90
15930;DHT22;8064;51.142;4.780;2023-05-02T03:47:46;11.80;99.90
15930;DHT22;8064;51.142;4.780;2023-05-02T03:50:12;11.70;99.90
15930;DHT22;8064;51.142;4.780;2023-05-02T03:52:37;11.70;99.90
15930;DHT22;8064;51.142;4.780;2023-05-02T03:55:03;11.70;99.90
15930;DHT22;8064;51.142;4.780;2023-05-02T03:57:30;11.70;99.90
15930;DHT22;8064;51.142;4.780;2023-05-02T03:59:56;11.60;99.90
15930;DHT22;8064;51.142;4.780;2023-05-02T04:02:22;11.60;99.90
15930;DHT22;8064;51.142;4.780;2023-05-02T04:04:48;11.60;99.90
15930;DHT22;8064;51.142;4.780;2023-05-02T04:07:13;11.50;99.90
15930;DHT22;8064;51.142;4.780;2023-05-02T04:09:44;11.50;99.90
15930;DHT22;8064;51.142;4.780;2023-05-02T04:12:10;11.50;99.90
15930;DHT22;8064;51.142;4.780;2023-05-02T04:14:36;11.50;99.90
15930;DHT22;8064;51.142;4.780;2023-05-02T04:17:01;11.50;99.90
15930;DHT22;8064;51.142;4.780;2023-05-02T04:19:27;11.50;99.90
15930;DHT22;8064;51.142;4.780;2023-05-02T04:21:53;11.40;99.90
15930;DHT22;8064;51.142;4.780;2023-05-02T04:24:19;11.40;99.90
15930;DHT22;8064;51.142;4.780;2023-05-02T04:26:44;11.40;99.90
15930;DHT22;8064;51.142;4.780;2023-05-02T04:29:12;11.40;99.90
15930;DHT22;8064;51.142;4.780;2023-05-02T04:31:38;11.40;99.90
15930;DHT22;8064;51.142;4.780;2023-05-02T04:34:05;11.40;99.90
15930;DHT22;8064;51.142;4.780;2023-05-02T04:36:31;11.40;99.90
15930;DHT22;8064;51.142;4.780;2023-05-02T04:38:58;11.40;99.90
15930;DHT22;8064;51.142;4.780;2023-05-02T04:41:24;11.40;99.90
15930;DHT22;8064;51.142;4.780;2023-05-02T04:43:50;11.40;99.90
15930;DHT22;8064;51.142;4.780;2023-05-02T04:46:17;11.40;99.90
15930;DHT22;8064;51.142;4.780;2023-05-02T04:48:43;11.50;99.90
15930;DHT22;8064;51.142;4.780;2023-05-02T04:51:09;11.50;99.90
15930;DHT22;8064;51.142;4.780;2023-05-02T04:53:35;11.50;99.90
15930;DHT22;8064;51.142;4.780;2023-05-02T04:56:01;11.50;99.90
15930;DHT22;8064;51.142;4.780;2023-05-02T04:58:27;11.50;99.90
15930;DHT22;8064;51.142;4.780;2023-05-02T05:00:53;11.60;99.90
15930;DHT22;8064;51.142;4.780;2023-05-02T05:03:19;11.60;99.90
15930;DHT22;8064;51.142;4.780;2023-05-02T05:05:45;11.60;99.90
15930;DHT22;8064;51.142;4.780;2023-05-02T05:08:12;11.70;99.90
15930;DHT22;8064;51.142;4.780;2023-05-02T05:10:37;11.70;99.90
15930;DHT22;8064;51.142;4.780;2023-05-02T05:13:05;11.80;99.90
15930;DHT22;8064;51.142;4.780;2023-05-02T05:15:31;11.80;99.90
15930;DHT22;8064;51.142;4.780;2023-05-02T05:17:57;11.80;99.90
15930;DHT22;8064;51.142;4.780;2023-05-02T05:20:23;11.90;99.90
15930;DHT22;8064;51.142;4.780;2023-05-02T05:22:49;11.90;99.90
15930;DHT22;8064;51.142;4.780;2023-05-02T05:25:15;11.90;99.90
15930;DHT22;8064;51.142;4.780;2023-05-02T05:27:40;12.00;99.90
15930;DHT22;8064;51.142;4.780;2023-05-02T05:30:06;12.00;99.90
15930;DHT22;8064;51.142;4.780;2023-05-02T05:32:33;12.10;99.90
15930;DHT22;8064;51.142;4.780;2023-05-02T05:35:00;12.10;99.90
15930;DHT22;8064;51.142;4.780;2023-05-02T05:37:26;12.20;99.90
15930;DHT22;8064;51.142;4.780;2023-05-02T05:39:51;12.20;99.90
15930;DHT22;8064;51.142;4.780;2023-05-02T05:42:17;12.20;99.90
15930;DHT22;8064;51.142;4.780;2023-05-02T05:44:43;12.20;99.90
15930;DHT22;8064;51.142;4.780;2023-05-02T05:47:09;12.20;99.90
15930;DHT22;8064;51.142;4.780;2023-05-02T05:49:34;12.20;99.90
15930;DHT22;8064;51.142;4.780;2023-05-02T05:52:01;12.20;99.90
15930;DHT22;8064;51.142;4.780;2023-05-02T05:54:27;12.20;99.90
15930;DHT22;8064;51.142;4.780;2023-05-02T05:56:53;12.30;99.90
15930;DHT22;8064;51.142;4.780;2023-05-02T05:59:19;12.30;99.90
15930;DHT22;8064;51.142;4.780;2023-05-02T06:01:45;12.30;99.90
15930;DHT22;8064;51.142;4.780;2023-05-02T06:04:10;12.30;99.90
15930;DHT22;8064;51.142;4.780;2023-05-02T06:06:36;12.30;99.90
15930;DHT22;8064;51.142;4.780;2023-05-02T06:09:02;12.40;99.90
15930;DHT22;8064;51.142;4.780;2023-05-02T06:11:28;12.50;99.90
15930;DHT22;8064;51.142;4.780;2023-05-02T06:13:54;12.60;99.90
15930;DHT22;8064;51.142;4.780;2023-05-02T06:16:20;12.80;99.90
15930;DHT22;8064;51.142;4.780;2023-05-02T06:18:46;13.00;99.90
15930;DHT22;8064;51.142;4.780;2023-05-02T06:21:12;13.20;99.90
15930;DHT22;8064;51.142;4.780;2023-05-02T06:23:38;13.30;99.90
15930;DHT22;8064;51.142;4.780;2023-05-02T06:26:04;13.50;99.90
15930;DHT22;8064;51.142;4.780;2023-05-02T06:28:31;13.60;99.90
15930;DHT22;8064;51.142;4.780;2023-05-02T06:33:23;13.80;99.90
15930;DHT22;8064;51.142;4.780;2023-05-02T06:35:51;13.80;99.90
15930;DHT22;8064;51.142;4.780;2023-05-02T06:38:17;13.90;99.90
15930;DHT22;8064;51.142;4.780;2023-05-02T06:40:43;13.90;99.90
15930;DHT22;8064;51.142;4.780;2023-05-02T06:43:10;13.90;99.90
15930;DHT22;8064;51.142;4.780;2023-05-02T06:45:36;13.90;99.90
15930;DHT22;8064;51.142;4.780;2023-05-02T06:48:02;13.90;99.90
15930;DHT22;8064;51.142;4.780;2023-05-02T06:50:28;14.00;99.90
15930;DHT22;8064;51.142;4.780;2023-05-02T06:52:54;14.00;99.90
15930;DHT22;8064;51.142;4.780;2023-05-02T06:55:21;14.00;99.90
15930;DHT22;8064;51.142;4.780;2023-05-02T06:57:48;14.00;99.90
15930;DHT22;8064;51.142;4.780;2023-05-02T07:00:16;14.00;99.90
15930;DHT22;8064;51.142;4.780;2023-05-02T07:02:44;13.90;99.90
15930;DHT22;8064;51.142;4.780;2023-05-02T07:05:10;14.00;99.90
15930;DHT22;8064;51.142;4.780;2023-05-02T07:07:36;14.20;99.90
15930;DHT22;8064;51.142;4.780;2023-05-02T07:10:03;14.20;99.90
15930;DHT22;8064;51.142;4.780;2023-05-02T07:12:29;14.30;99.90
15930;DHT22;8064;51.142;4.780;2023-05-02T07:14:54;14.40;99.80
15930;DHT22;8064;51.142;4.780;2023-05-02T07:17:20;14.40;99.70
15930;DHT22;8064;51.142;4.780;2023-05-02T07:19:46;14.60;99.90
15930;DHT22;8064;51.142;4.780;2023-05-02T07:22:12;14.80;99.20
15930;DHT22;8064;51.142;4.780;2023-05-02T07:24:40;15.00;99.10
15930;DHT22;8064;51.142;4.780;2023-05-02T07:27:08;15.30;99.00
15930;DHT22;8064;51.142;4.780;2023-05-02T07:29:34;15.50;98.80
15930;DHT22;8064;51.142;4.780;2023-05-02T07:32:00;15.80;98.30
15930;DHT22;8064;51.142;4.780;2023-05-02T07:34:25;16.10;98.20
15930;DHT22;8064;51.142;4.780;2023-05-02T07:36:51;16.30;98.10
15930;DHT22;8064;51.142;4.780;2023-05-02T07:39:17;16.50;97.70
15930;DHT22;8064;51.142;4.780;2023-05-02T07:41:43;16.70;97.10
15930;DHT22;8064;51.142;4.780;2023-05-02T07:44:09;16.80;96.60
15930;DHT22;8064;51.142;4.780;2023-05-02T07:46:35;16.80;96.50
15930;DHT22;8064;51.142;4.780;2023-05-02T07:49:01;16.80;96.20
15930;DHT22;8064;51.142;4.780;2023-05-02T07:51:27;16.70;95.90
15930;DHT22;8064;51.142;4.780;2023-05-02T07:53:53;16.60;95.70
15930;DHT22;8064;51.142;4.780;2023-05-02T07:56:20;16.50;95.60
15930;DHT22;8064;51.142;4.780;2023-05-02T07:58:46;16.40;95.50
15930;DHT22;8064;51.142;4.780;2023-05-02T08:01:12;16.30;95.40
15930;DHT22;8064;51.142;4.780;2023-05-02T08:03:37;16.30;95.40
15930;DHT22;8064;51.142;4.780;2023-05-02T08:06:03;16.20;95.10
15930;DHT22;8064;51.142;4.780;2023-05-02T08:08:29;16.10;95.00
15930;DHT22;8064;51.142;4.780;2023-05-02T08:10:54;16.00;94.90
15930;DHT22;8064;51.142;4.780;2023-05-02T08:13:20;16.00;95.40
15930;DHT22;8064;51.142;4.780;2023-05-02T08:15:46;16.10;95.10
15930;DHT22;8064;51.142;4.780;2023-05-02T08:18:12;16.30;95.00
15930;DHT22;8064;51.142;4.780;2023-05-02T08:20:37;16.40;94.80
15930;DHT22;8064;51.142;4.780;2023-05-02T08:23:03;16.60;94.70
15930;DHT22;8064;51.142;4.780;2023-05-02T08:25:29;16.80;94.70
15930;DHT22;8064;51.142;4.780;2023-05-02T08:27:55;17.00;94.60
15930;DHT22;8064;51.142;4.780;2023-05-02T08:30:20;17.20;93.80
15930;DHT22;8064;51.142;4.780;2023-05-02T08:32:46;17.40;93.70
15930;DHT22;8064;51.142;4.780;2023-05-02T08:35:12;17.50;93.50
15930;DHT22;8064;51.142;4.780;2023-05-02T08:37:38;17.70;93.30
15930;DHT22;8064;51.142;4.780;2023-05-02T08:40:04;17.90;93.10
15930;DHT22;8064;51.142;4.780;2023-05-02T08:42:32;18.10;92.70
15930;DHT22;8064;51.142;4.780;2023-05-02T08:44:58;18.20;92.60
15930;DHT22;8064;51.142;4.780;2023-05-02T08:47:24;18.20;92.50
15930;DHT22;8064;51.142;4.780;2023-05-02T08:49:52;18.20;92.20
15930;DHT22;8064;51.142;4.780;2023-05-02T08:52:20;18.20;92.20
15930;DHT22;8064;51.142;4.780;2023-05-02T08:54:46;18.40;92.30
15930;DHT22;8064;51.142;4.780;2023-05-02T08:57:15;18.50;92.20
15930;DHT22;8064;51.142;4.780;2023-05-02T08:59:42;18.60;91.90
15930;DHT22;8064;51.142;4.780;2023-05-02T09:02:36;18.80;91.60
15930;DHT22;8064;51.142;4.780;2023-05-02T09:05:06;18.90;90.80
15930;DHT22;8064;51.142;4.780;2023-05-02T09:07:44;18.80;90.50
15930;DHT22;8064;51.142;4.780;2023-05-02T09:10:11;18.70;90.30
15930;DHT22;8064;51.142;4.780;2023-05-02T09:12:37;18.70;90.60
15930;DHT22;8064;51.142;4.780;2023-05-02T09:15:22;18.80;90.30
15930;DHT22;8064;51.142;4.780;2023-05-02T09:17:48;19.00;89.60
15930;DHT22;8064;51.142;4.780;2023-05-02T09:20:15;19.00;90.10
15930;DHT22;8064;51.142;4.780;2023-05-02T09:22:48;18.90;89.50
15930;DHT22;8064;51.142;4.780;2023-05-02T09:25:15;18.80;88.80
15930;DHT22;8064;51.142;4.780;2023-05-02T09:27:53;18.70;88.80
15930;DHT22;8064;51.142;4.780;2023-05-02T09:30:22;18.70;89.10
15930;DHT22;8064;51.142;4.780;2023-05-02T09:32:49;18.80;89.80
15930;DHT22;8064;51.142;4.780;2023-05-02T09:35:17;18.90;89.40
15930;DHT22;8064;51.142;4.780;2023-05-02T09:37:50;19.20;88.60
15930;DHT22;8064;51.142;4.780;2023-05-02T09:40:16;19.40;87.90
15930;DHT22;8064;51.142;4.780;2023-05-02T09:42:42;19.60;87.00
15930;DHT22;8064;51.142;4.780;2023-05-02T09:45:08;19.70;86.80
15930;DHT22;8064;51.142;4.780;2023-05-02T09:47:43;19.90;87.10
15930;DHT22;8064;51.142;4.780;2023-05-02T09:50:10;20.20;86.80
15930;DHT22;8064;51.142;4.780;2023-05-02T09:52:36;20.40;85.70
15930;DHT22;8064;51.142;4.780;2023-05-02T09:55:19;20.40;84.40
15930;DHT22;8064;51.142;4.780;2023-05-02T09:57:47;20.30;82.10
15930;DHT22;8064;51.142;4.780;2023-05-02T10:00:14;20.20;81.90
15930;DHT22;8064;51.142;4.780;2023-05-02T10:02:44;20.10;82.00
15930;DHT22;8064;51.142;4.780;2023-05-02T10:05:12;20.10;82.00
15930;DHT22;8064;51.142;4.780;2023-05-02T10:07:43;19.90;82.00
15930;DHT22;8064;51.142;4.780;2023-05-02T10:10:18;19.90;82.50
15930;DHT22;8064;51.142;4.780;2023-05-02T10:12:45;20.00;83.20
15930;DHT22;8064;51.142;4.780;2023-05-02T10:15:14;20.10;82.80
15930;DHT22;8064;51.142;4.780;2023-05-02T10:17:47;20.00;82.20
15930;DHT22;8064;51.142;4.780;2023-05-02T10:20:17;19.90;81.90
15930;DHT22;8064;51.142;4.780;2023-05-02T10:22:44;19.90;82.20
15930;DHT22;8064;51.142;4.780;2023-05-02T10:25:12;20.10;82.70
15930;DHT22;8064;51.142;4.780;2023-05-02T10:27:38;20.20;82.30
15930;DHT22;8064;51.142;4.780;2023-05-02T10:30:04;20.40;82.60
15930;DHT22;8064;51.142;4.780;2023-05-02T10:32:32;20.50;82.10
15930;DHT22;8064;51.142;4.780;2023-05-02T10:35:11;20.70;81.90
15930;DHT22;8064;51.142;4.780;2023-05-02T10:37:39;20.90;81.30
15930;DHT22;8064;51.142;4.780;2023-05-02T10:40:25;21.00;81.60
15930;DHT22;8064;51.142;4.780;2023-05-02T10:42:51;21.00;79.90
15930;DHT22;8064;51.142;4.780;2023-05-02T10:45:30;21.10;79.90
15930;DHT22;8064;51.142;4.780;2023-05-02T10:48:17;21.20;79.90
15930;DHT22;8064;51.142;4.780;2023-05-02T10:50:46;21.40;77.50
15930;DHT22;8064;51.142;4.780;2023-05-02T10:53:25;21.40;78.80
15930;DHT22;8064;51.142;4.780;2023-05-02T10:56:20;21.20;77.40
15930;DHT22;8064;51.142;4.780;2023-05-02T10:58:49;21.00;76.50
15930;DHT22;8064;51.142;4.780;2023-05-02T11:01:35;20.90;77.10
15930;DHT22;8064;51.142;4.780;2023-05-02T11:04:05;20.90;75.50
15930;DHT22;8064;51.142;4.780;2023-05-02T11:06:34;21.00;77.10
15930;DHT22;8064;51.142;4.780;2023-05-02T11:12:03;21.20;75.60
15930;DHT22;8064;51.142;4.780;2023-05-02T11:14:48;21.00;75.10
15930;DHT22;8064;51.142;4.780;2023-05-02T11:17:14;20.90;76.00
15930;DHT22;8064;51.142;4.780;2023-05-02T11:22:45;20.60;75.40
15930;DHT22;8064;51.142;4.780;2023-05-02T11:25:28;20.50;75.40
15930;DHT22;8064;51.142;4.780;2023-05-02T11:27:54;20.40;76.00
15930;DHT22;8064;51.142;4.780;2023-05-02T11:30:40;20.50;76.90
15930;DHT22;8064;51.142;4.780;2023-05-02T11:35:34;20.60;75.90
15930;DHT22;8064;51.142;4.780;2023-05-02T11:38:01;20.60;76.10
15930;DHT22;8064;51.142;4.780;2023-05-02T11:40:29;20.60;76.50
15930;DHT22;8064;51.142;4.780;2023-05-02T11:42:56;20.60;76.60
15930;DHT22;8064;51.142;4.780;2023-05-02T11:45:34;20.60;76.80
15930;DHT22;8064;51.142;4.780;2023-05-02T11:48:03;20.60;75.40
15930;DHT22;8064;51.142;4.780;2023-05-02T11:50:30;20.40;75.50
15930;DHT22;8064;51.142;4.780;2023-05-02T11:52:56;20.20;75.30
15930;DHT22;8064;51.142;4.780;2023-05-02T11:55:21;20.10;74.90
15930;DHT22;8064;51.142;4.780;2023-05-02T11:57:47;19.90;74.80
15930;DHT22;8064;51.142;4.780;2023-05-02T12:00:13;19.80;75.00
15930;DHT22;8064;51.142;4.780;2023-05-02T12:02:42;19.70;75.00
15930;DHT22;8064;51.142;4.780;2023-05-02T12:05:09;19.70;75.50
15930;DHT22;8064;51.142;4.780;2023-05-02T12:07:37;19.60;75.90
15930;DHT22;8064;51.142;4.780;2023-05-02T12:10:03;19.50;75.10
15930;DHT22;8064;51.142;4.780;2023-05-02T12:12:30;19.40;74.40
15930;DHT22;8064;51.142;4.780;2023-05-02T12:14:56;19.20;73.60
15930;DHT22;8064;51.142;4.780;2023-05-02T12:17:22;19.20;73.90
15930;DHT22;8064;51.142;4.780;2023-05-02T12:19:49;19.20;74.60
15930;DHT22;8064;51.142;4.780;2023-05-02T12:22:15;19.30;74.30
15930;DHT22;8064;51.142;4.780;2023-05-02T12:24:42;19.30;74.40
15930;DHT22;8064;51.142;4.780;2023-05-02T12:27:11;19.40;75.10
15930;DHT22;8064;51.142;4.780;2023-05-02T12:29:55;19.30;74.60
15930;DHT22;8064;51.142;4.780;2023-05-02T12:32:38;19.30;74.00
15930;DHT22;8064;51.142;4.780;2023-05-02T12:35:20;19.20;74.40
15930;DHT22;8064;51.142;4.780;2023-05-02T12:37:47;19.20;75.00
15930;DHT22;8064;51.142;4.780;2023-05-02T12:40:24;19.20;75.40
15930;DHT22;8064;51.142;4.780;2023-05-02T12:43:09;19.10;73.80
15930;DHT22;8064;51.142;4.780;2023-05-02T12:45:35;19.00;74.40
15930;DHT22;8064;51.142;4.780;2023-05-02T12:50:46;18.90;76.20
15930;DHT22;8064;51.142;4.780;2023-05-02T12:53:13;18.80;76.40
15930;DHT22;8064;51.142;4.780;2023-05-02T12:55:39;18.80;76.40
15930;DHT22;8064;51.142;4.780;2023-05-02T12:58:08;18.80;75.50
15930;DHT22;8064;51.142;4.780;2023-05-02T13:00:37;18.80;75.10
15930;DHT22;8064;51.142;4.780;2023-05-02T13:03:04;18.70;74.50
15930;DHT22;8064;51.142;4.780;2023-05-02T13:05:29;18.60;74.00
15930;DHT22;8064;51.142;4.780;2023-05-02T13:07:55;18.50;73.90
15930;DHT22;8064;51.142;4.780;2023-05-02T13:10:23;18.40;73.90
15930;DHT22;8064;51.142;4.780;2023-05-02T13:12:50;18.40;73.40
15930;DHT22;8064;51.142;4.780;2023-05-02T13:15:17;18.30;72.80
15930;DHT22;8064;51.142;4.780;2023-05-02T13:17:43;18.30;72.80
15930;DHT22;8064;51.142;4.780;2023-05-02T13:20:10;18.30;73.60
15930;DHT22;8064;51.142;4.780;2023-05-02T13:22:36;18.30;74.00
15930;DHT22;8064;51.142;4.780;2023-05-02T13:25:03;18.40;74.00
15930;DHT22;8064;51.142;4.780;2023-05-02T13:27:29;18.40;73.90
15930;DHT22;8064;51.142;4.780;2023-05-02T13:29:55;18.40;73.90
15930;DHT22;8064;51.142;4.780;2023-05-02T13:32:21;18.40;73.60
15930;DHT22;8064;51.142;4.780;2023-05-02T13:34:47;18.40;73.10
15930;DHT22;8064;51.142;4.780;2023-05-02T13:37:13;18.40;72.60
15930;DHT22;8064;51.142;4.780;2023-05-02T13:39:38;18.40;72.50
15930;DHT22;8064;51.142;4.780;2023-05-02T13:42:04;18.40;72.70
15930;DHT22;8064;51.142;4.780;2023-05-02T13:44:31;18.40;72.20
15930;DHT22;8064;51.142;4.780;2023-05-02T13:46:57;18.30;72.00
15930;DHT22;8064;51.142;4.780;2023-05-02T13:49:23;18.30;73.10
15930;DHT22;8064;51.142;4.780;2023-05-02T13:51:49;18.30;73.40
15930;DHT22;8064;51.142;4.780;2023-05-02T13:54:15;18.30;72.60
15930;DHT22;8064;51.142;4.780;2023-05-02T13:56:41;18.30;72.30
15930;DHT22;8064;51.142;4.780;2023-05-02T13:59:08;18.20;72.60
15930;DHT22;8064;51.142;4.780;2023-05-02T14:01:34;18.20;73.20
15930;DHT22;8064;51.142;4.780;2023-05-02T14:04:00;18.20;71.90
15930;DHT22;8064;51.142;4.780;2023-05-02T14:06:32;18.20;71.60
15930;DHT22;8064;51.142;4.780;2023-05-02T14:08:57;18.10;71.00
15930;DHT22;8064;51.142;4.780;2023-05-02T14:11:23;18.10;71.00
15930;DHT22;8064;51.142;4.780;2023-05-02T14:13:49;18.10;71.10
15930;DHT22;8064;51.142;4.780;2023-05-02T14:16:15;18.00;71.50
15930;DHT22;8064;51.142;4.780;2023-05-02T14:18:40;18.00;72.50
15930;DHT22;8064;51.142;4.780;2023-05-02T14:21:06;18.00;71.10
15930;DHT22;8064;51.142;4.780;2023-05-02T14:23:32;18.00;71.20
15930;DHT22;8064;51.142;4.780;2023-05-02T14:25:59;18.00;71.80
15930;DHT22;8064;51.142;4.780;2023-05-02T14:28:26;18.00;71.90
15930;DHT22;8064;51.142;4.780;2023-05-02T14:30:52;18.00;72.00
15930;DHT22;8064;51.142;4.780;2023-05-02T14:33:18;18.00;71.90
15930;DHT22;8064;51.142;4.780;2023-05-02T14:35:43;18.00;72.10
15930;DHT22;8064;51.142;4.780;2023-05-02T14:38:10;18.00;72.10
15930;DHT22;8064;51.142;4.780;2023-05-02T14:40:36;18.00;71.80
15930;DHT22;8064;51.142;4.780;2023-05-02T14:43:02;18.00;72.00
15930;DHT22;8064;51.142;4.780;2023-05-02T14:45:28;17.90;72.20
15930;DHT22;8064;51.142;4.780;2023-05-02T14:47:54;17.90;72.00
15930;DHT22;8064;51.142;4.780;2023-05-02T14:50:20;17.80;71.40
15930;DHT22;8064;51.142;4.780;2023-05-02T14:52:46;17.80;71.40
15930;DHT22;8064;51.142;4.780;2023-05-02T14:55:11;17.80;71.90
15930;DHT22;8064;51.142;4.780;2023-05-02T14:57:37;17.70;71.90
15930;DHT22;8064;51.142;4.780;2023-05-02T15:00:04;17.70;72.00
15930;DHT22;8064;51.142;4.780;2023-05-02T15:02:32;17.80;72.40
15930;DHT22;8064;51.142;4.780;2023-05-02T15:04:58;17.80;72.60
15930;DHT22;8064;51.142;4.780;2023-05-02T15:07:24;17.80;72.60
15930;DHT22;8064;51.142;4.780;2023-05-02T15:09:51;17.80;72.50
15930;DHT22;8064;51.142;4.780;2023-05-02T15:12:17;17.80;71.90
15930;DHT22;8064;51.142;4.780;2023-05-02T15:14:42;17.80;71.50
15930;DHT22;8064;51.142;4.780;2023-05-02T15:17:08;17.80;72.20
15930;DHT22;8064;51.142;4.780;2023-05-02T15:19:34;17.70;71.10
15930;DHT22;8064;51.142;4.780;2023-05-02T15:21:59;17.70;71.30
15930;DHT22;8064;51.142;4.780;2023-05-02T15:24:26;17.70;71.70
15930;DHT22;8064;51.142;4.780;2023-05-02T15:26:52;17.70;72.00
15930;DHT22;8064;51.142;4.780;2023-05-02T15:29:18;17.70;72.10
15930;DHT22;8064;51.142;4.780;2023-05-02T15:31:43;17.70;71.90
15930;DHT22;8064;51.142;4.780;2023-05-02T15:34:09;17.70;71.80
15930;DHT22;8064;51.142;4.780;2023-05-02T15:36:35;17.70;71.90
15930;DHT22;8064;51.142;4.780;2023-05-02T15:39:04;17.70;72.10
15930;DHT22;8064;51.142;4.780;2023-05-02T15:41:31;17.70;72.30
15930;DHT22;8064;51.142;4.780;2023-05-02T15:43:58;17.70;72.10
15930;DHT22;8064;51.142;4.780;2023-05-02T15:46:24;17.60;71.90
15930;DHT22;8064;51.142;4.780;2023-05-02T15:48:50;17.60;71.80
15930;DHT22;8064;51.142;4.780;2023-05-02T15:51:16;17.60;72.40
15930;DHT22;8064;51.142;4.780;2023-05-02T15:53:42;17.60;71.50
15930;DHT22;8064;51.142;4.780;2023-05-02T15:56:10;17.60;71.40
15930;DHT22;8064;51.142;4.780;2023-05-02T15:58:37;17.50;70.70
15930;DHT22;8064;51.142;4.780;2023-05-02T16:01:03;17.50;70.30
15930;DHT22;8064;51.142;4.780;2023-05-02T16:03:29;17.50;70.70
15930;DHT22;8064;51.142;4.780;2023-05-02T16:05:56;17.50;70.90
15930;DHT22;8064;51.142;4.780;2023-05-02T16:08:24;17.40;70.90
15930;DHT22;8064;51.142;4.780;2023-05-02T16:10:50;17.40;70.90
15930;DHT22;8064;51.142;4.780;2023-05-02T16:13:16;17.40;71.20
15930;DHT22;8064;51.142;4.780;2023-05-02T16:15:42;17.30;71.00
15930;DHT22;8064;51.142;4.780;2023-05-02T16:18:07;17.30;71.00
15930;DHT22;8064;51.142;4.780;2023-05-02T16:20:33;17.30;70.70
15930;DHT22;8064;51.142;4.780;2023-05-02T16:23:01;17.30;70.50
15930;DHT22;8064;51.142;4.780;2023-05-02T16:25:27;17.30;70.70